createdAt,value
2022-11-13T00:03:15.439Z,71.10
2022-11-13T00:08:37.885Z,71.20
2022-11-13T00:13:59.969Z,71.10
2022-11-13T00:19:22.176Z,70.80
2022-11-13T00:24:44.252Z,71.40
2022-11-13T00:30:06.843Z,71.10
2022-11-13T00:35:28.967Z,71.20
2022-11-13T00:40:51.066Z,71.00
2022-11-13T00:46:13.402Z,71.10
2022-11-13T00:51:35.943Z,71.20
2022-11-13T00:56:58.027Z,71.20
2022-11-13T01:02:20.145Z,70.90
2022-11-13T01:07:42.278Z,70.60
2022-11-13T01:13:04.398Z,71.80
2022-11-13T01:18:26.736Z,71.60
2022-11-13T01:23:49.441Z,71.40
2022-11-13T01:29:12.666Z,71.10
2022-11-13T01:34:34.862Z,70.90
2022-11-13T01:39:56.952Z,70.80
2022-11-13T01:45:58.805Z,70.60
2022-11-13T01:51:33.749Z,70.60
2022-11-13T01:56:57.119Z,70.40
2022-11-13T02:02:19.394Z,70.30
2022-11-13T02:07:41.548Z,70.20
2022-11-13T02:13:03.911Z,70.10
2022-11-13T02:18:29.560Z,70.10
2022-11-13T02:24:04.539Z,70.20
2022-11-13T02:29:26.758Z,69.80
2022-11-13T02:34:48.853Z,70.00
2022-11-13T02:40:11.619Z,69.90
2022-11-13T02:45:33.704Z,70.00
2022-11-13T02:50:55.807Z,69.70
2022-11-13T02:56:18.132Z,70.00
2022-11-13T03:01:40.373Z,69.70
2022-11-13T03:07:02.563Z,69.80
2022-11-13T03:12:24.737Z,69.70
2022-11-13T03:17:47.040Z,69.80
2022-11-13T03:23:09.532Z,69.90
2022-11-13T03:28:31.842Z,69.80
2022-11-13T03:33:54.301Z,69.70
2022-11-13T03:39:16.365Z,69.80
2022-11-13T03:44:38.474Z,69.60
2022-11-13T03:50:00.647Z,69.60
2022-11-13T03:55:23.054Z,69.70
2022-11-13T04:00:46.960Z,69.50
2022-11-13T04:06:09.689Z,69.60
2022-11-13T04:11:31.799Z,69.50
2022-11-13T04:16:53.926Z,69.70
2022-11-13T04:22:16.132Z,69.50
2022-11-13T04:27:38.316Z,69.60
2022-11-13T04:33:00.380Z,69.50
2022-11-13T04:38:22.433Z,69.50
2022-11-13T04:43:44.539Z,69.60
2022-11-13T04:49:06.854Z,69.20
2022-11-13T04:54:29.208Z,69.20
2022-11-13T04:59:51.483Z,69.20
2022-11-13T05:05:13.658Z,69.30
2022-11-13T05:10:36.096Z,69.00
2022-11-13T05:16:02.811Z,69.00
2022-11-13T05:21:24.926Z,69.20
2022-11-13T05:26:47.059Z,69.10
2022-11-13T05:32:09.211Z,69.20
2022-11-13T05:37:31.327Z,69.20
2022-11-13T05:42:54.356Z,69.30
2022-11-13T05:48:16.434Z,69.30
2022-11-13T05:53:39.534Z,69.30
2022-11-13T05:59:03.586Z,69.30
2022-11-13T06:04:25.663Z,69.10
2022-11-13T06:09:47.775Z,69.30
2022-11-13T06:15:10.333Z,69.70
2022-11-13T06:20:35.643Z,69.40
2022-11-13T06:26:09.516Z,69.50
2022-11-13T06:31:33.850Z,69.80
2022-11-13T06:36:56.056Z,69.90
2022-11-13T06:42:18.168Z,70.20
2022-11-13T06:47:40.262Z,70.10
2022-11-13T06:53:02.444Z,70.40
2022-11-13T06:58:24.559Z,70.50
2022-11-13T07:03:46.949Z,71.10
2022-11-13T07:09:09.335Z,74.60
2022-11-13T07:14:31.436Z,74.50
2022-11-13T07:19:53.593Z,71.00
2022-11-13T07:25:15.740Z,71.00
2022-11-13T07:30:37.905Z,66.10
2022-11-13T07:36:00.859Z,68.90
2022-11-13T07:41:23.305Z,65.70
2022-11-13T07:46:45.750Z,63.40
2022-11-13T07:52:07.889Z,58.00
2022-11-13T07:57:30.450Z,58.70
2022-11-13T08:02:52.790Z,61.00
2022-11-13T08:08:15.572Z,60.90
2022-11-13T08:13:38.550Z,58.60
2022-11-13T08:19:00.762Z,56.20
2022-11-13T08:24:22.964Z,56.90
2022-11-13T08:29:45.113Z,58.70
2022-11-13T08:35:07.497Z,58.20
2022-11-13T08:40:30.138Z,57.20
2022-11-13T08:45:52.553Z,55.70
2022-11-13T08:51:14.720Z,53.80
2022-11-13T08:56:37.349Z,50.40
2022-11-13T09:01:59.850Z,50.30
2022-11-13T09:07:27.165Z,50.60
2022-11-13T09:12:49.864Z,52.60
2022-11-13T09:18:12.095Z,53.50
2022-11-13T09:23:35.488Z,54.20
2022-11-13T09:28:57.669Z,53.90
2022-11-13T09:34:19.879Z,53.90
2022-11-13T09:39:42.121Z,53.50
2022-11-13T09:45:11.815Z,55.50
2022-11-13T09:50:34.179Z,54.90
2022-11-13T09:56:28.789Z,56.00
2022-11-13T10:07:28.871Z,57.50
2022-11-13T10:12:55.345Z,57.80
2022-11-13T10:18:24.090Z,59.00
2022-11-13T10:23:55.641Z,58.10
2022-11-13T10:29:20.584Z,59.40
2022-11-13T10:34:48.314Z,59.10
2022-11-13T10:40:10.656Z,58.90
2022-11-13T10:45:33.264Z,59.20
2022-11-13T10:50:59.875Z,59.70
2022-11-13T11:01:41.303Z,59.30
2022-11-13T11:07:22.549Z,59.00
2022-11-13T11:12:52.988Z,58.50
2022-11-13T11:24:04.990Z,58.70
2022-11-13T11:40:00.820Z,59.30
2022-11-13T12:17:44.976Z,62.30
2022-11-13T12:44:29.557Z,61.30
2022-11-13T12:50:32.122Z,61.90
2022-11-13T12:56:00.419Z,62.00
2022-11-13T13:01:25.970Z,63.20
2022-11-13T13:07:27.587Z,62.90
2022-11-13T13:18:37.719Z,62.70
2022-11-13T13:24:09.676Z,62.50
2022-11-13T13:29:34.124Z,62.00
2022-11-13T13:40:49.356Z,62.70
2022-11-13T13:46:18.938Z,61.40
2022-11-13T13:51:45.475Z,62.40
2022-11-13T13:57:14.380Z,62.70
2022-11-13T14:02:46.521Z,63.10
2022-11-13T14:08:18.198Z,63.50
2022-11-13T14:13:41.975Z,63.60
2022-11-13T14:19:05.672Z,63.50
2022-11-13T14:24:48.814Z,63.60
2022-11-13T14:30:24.063Z,64.00
2022-11-13T14:35:55.800Z,64.20
2022-11-13T14:41:23.665Z,64.80
2022-11-13T14:46:45.858Z,65.70
2022-11-13T14:52:25.021Z,64.90
2022-11-13T14:57:48.808Z,65.10
2022-11-13T15:03:11.044Z,64.60
2022-11-13T15:08:35.428Z,65.10
2022-11-13T15:14:04.043Z,64.90
2022-11-13T15:19:31.891Z,65.20
2022-11-13T15:24:54.010Z,65.20
2022-11-13T15:30:16.721Z,65.00
2022-11-13T15:35:38.908Z,64.60
2022-11-13T15:41:01.264Z,64.30
2022-11-13T15:46:24.926Z,64.50
2022-11-13T15:51:47.281Z,64.40
2022-11-13T15:57:19.749Z,64.30
2022-11-13T16:02:41.999Z,64.30
2022-11-13T16:08:12.983Z,64.40
2022-11-13T16:13:35.098Z,64.30
2022-11-13T16:19:00.246Z,64.40
2022-11-13T16:24:24.227Z,64.50
2022-11-13T16:29:46.710Z,64.40
2022-11-13T16:35:14.750Z,64.50
2022-11-13T16:40:37.765Z,64.50
2022-11-13T16:46:01.627Z,64.60
2022-11-13T16:51:23.896Z,64.90
2022-11-13T16:56:46.509Z,64.70
2022-11-13T17:02:17.982Z,64.80
2022-11-13T17:07:40.331Z,64.70
2022-11-13T17:13:02.509Z,64.60
2022-11-13T17:18:24.714Z,64.80
2022-11-13T17:23:47.121Z,64.80
2022-11-13T17:29:09.409Z,65.00
2022-11-13T17:34:31.651Z,65.00
2022-11-13T17:39:53.935Z,65.10
2022-11-13T17:45:16.725Z,65.10
2022-11-13T17:50:38.844Z,65.20
2022-11-13T17:56:02.884Z,65.20
2022-11-13T18:01:25.242Z,65.50
2022-11-13T18:06:47.761Z,65.20
2022-11-13T18:12:09.959Z,65.60
2022-11-13T18:17:32.155Z,65.60
2022-11-13T18:22:55.163Z,65.70
2022-11-13T18:28:17.519Z,65.80
2022-11-13T18:33:39.733Z,65.80
2022-11-13T18:39:03.295Z,65.80
2022-11-13T18:44:25.688Z,65.90
2022-11-13T18:49:47.803Z,66.00
2022-11-13T18:55:09.954Z,66.00
2022-11-13T19:00:32.631Z,66.00
2022-11-13T19:05:54.727Z,66.20
2022-11-13T19:11:18.290Z,66.30
2022-11-13T19:16:40.868Z,66.40
2022-11-13T19:22:03.243Z,66.30
2022-11-13T19:27:25.454Z,66.30
2022-11-13T19:32:47.594Z,66.20
2022-11-13T19:38:09.699Z,66.40
2022-11-13T19:43:34.542Z,66.30
2022-11-13T19:48:56.706Z,66.60
2022-11-13T19:54:18.844Z,66.30
2022-11-13T19:59:41.073Z,66.50
2022-11-13T20:05:03.474Z,66.40
2022-11-13T20:10:25.694Z,66.60
2022-11-13T20:15:54.809Z,66.70
2022-11-13T20:21:24.500Z,66.70
2022-11-13T20:26:46.987Z,67.10
2022-11-13T20:32:09.101Z,67.00
2022-11-13T20:37:31.482Z,67.00
2022-11-13T20:42:53.584Z,67.00
2022-11-13T20:48:16.099Z,67.10
2022-11-13T20:53:39.022Z,67.70
2022-11-13T20:59:04.097Z,67.20
2022-11-13T21:04:26.843Z,67.10
2022-11-13T21:09:50.191Z,67.10
2022-11-13T21:15:12.466Z,67.10
2022-11-13T21:20:36.230Z,67.10
2022-11-13T21:26:01.125Z,67.10
2022-11-13T21:31:23.672Z,67.10
2022-11-13T21:36:45.833Z,67.00
2022-11-13T21:42:08.086Z,67.00
2022-11-13T21:47:30.232Z,66.90
2022-11-13T21:52:52.435Z,67.00
2022-11-13T21:58:14.910Z,66.90
2022-11-13T22:03:37.930Z,66.80
2022-11-13T22:09:26.134Z,66.80
2022-11-13T22:14:48.296Z,66.70
2022-11-13T22:20:11.075Z,66.60
2022-11-13T22:25:34.638Z,67.30
2022-11-13T22:30:56.901Z,66.60
2022-11-13T22:36:22.595Z,66.60
2022-11-13T22:41:44.713Z,66.10
2022-11-13T22:47:07.221Z,66.60
2022-11-13T22:52:29.321Z,66.60
2022-11-13T22:57:51.461Z,66.50
2022-11-13T23:03:14.082Z,66.50
2022-11-13T23:08:39.068Z,66.40
2022-11-13T23:14:04.360Z,66.30
2022-11-13T23:19:26.486Z,66.20
2022-11-13T23:24:48.826Z,66.30
2022-11-13T23:30:11.889Z,66.10
2022-11-13T23:35:34.545Z,66.40
2022-11-13T23:40:59.399Z,66.50
2022-11-13T23:46:21.504Z,66.50
2022-11-13T23:51:43.825Z,66.50
2022-11-13T23:57:05.926Z,66.50
